Monthly & Yearly Reports
[Select Refresh to Update]
Updated Automatically by Ambient Software's Virtual Weather Station 


NOAA Monthly Report

                  MONTHLY CLIMATOLOGICAL SUMMARY FOR 8/2015
                                        HEAT  COOL        
     MEAN                               DEG   DEG       WIND SPEED       DOM MEAN  MEAN
DAY  TEMP  HIGH   TIME     LOW   TIME   DAYS  DAYS RAIN AVG  HI  TIME    DIR BAROM HUM
---------------------------------------------------------------------------------------
1    79.4  94.5   5:07pm  69.3   5:32am    0    6  0.00   0  14   6:57pm  SE 29.85   71
2    81.0  94.0   4:50pm  68.3   6:15am    0    7  0.00   1  12  11:12am ESE 29.73   64
3    78.3  87.4  12:33pm  69.6   6:43am    0    4  0.00   1  14  12:42pm NNW 29.75   71
4    75.5  88.2  11:25am  69.6  10:16pm    0    2  0.00   0  17  12:48pm NNW 29.80   79
---------------------------------------------------------------------------------------
TOT  78.6  94.5   8/1/15  68.3   8/2/15    0   18  0.00   1  17   8/4/15 NNW 29.78   71

HEAT BASE: 66.0
COOL BASE: 76.0


NOAA Yearly Report

                  YEARLY CLIMATOLOGICAL SUMMARY FOR 2015
                                        HEAT  COOL        
     MEAN                               DEG   DEG       WIND SPEED       DOM MEAN  MEAN
MON  TEMP  HIGH   DATE     LOW   DATE   DAYS  DAYS RAIN AVG  HI  DATE    DIR BAROM HUM
---------------------------------------------------------------------------------------
1    32.3  73.9  1/28/15   0.5   1/7/15 1045    0  0.00   2  27   1/8/15   W 30.14   60
2    26.6  66.8   2/8/15   0.3   2/5/15 1101    0  0.00   3  27   2/6/15   W 30.14   62
3    47.1  82.0  3/16/15  10.5   3/5/15  602    1  0.00   2  24  3/16/15   W 30.03   58
4    57.6  83.8   4/7/15  28.1   4/4/15  280    2  0.00   2  28   4/1/15 ENE 29.82   62
5    64.5  82.6  5/27/15  41.6   5/1/15  121    8  0.00   2  28   5/3/15  NE 29.88   73
6    75.3  96.1  6/25/15  57.8   6/1/15   12   95  0.00   1  40  6/26/15   E 29.78   74
7    77.8  98.7  7/14/15  58.7   7/4/15   10  141  0.07   1  22   7/1/15   E 29.77   76
8    78.6  94.5   8/1/15  68.3   8/2/15    0   18  0.00   1  17   8/4/15 NNW 29.78   71
---------------------------------------------------------------------------------------
TOT  55.2  98.7  7/14/15   0.3   2/5/15 3171  264  0.07   2  40  6/26/15   E 29.93   67

HEAT BASE: 66.0
COOL BASE: 76.0


                  YEARLY CLIMATOLOGICAL SUMMARY FOR 2011
                                        HEAT  COOL        
     MEAN                               DEG   DEG       WIND SPEED       DOM MEAN  MEAN
MON  TEMP  HIGH   DATE     LOW   DATE   DAYS  DAYS RAIN AVG  HI  DATE    DIR BAROM HUM
---------------------------------------------------------------------------------------
1    25.1  56.3  1/28/11  -4.1  1/13/11 1267    0  0.36   2  29   1/7/11   E 30.05   68
2    31.8  76.0  2/17/11 -11.2   2/3/11  959    0  1.96   3  38  2/17/11 SSE 30.01   66
3    44.3  79.9  3/17/11  18.9   3/6/11  639    1  1.69   4  31  3/17/11   N 29.98   68
4    56.8  87.8   4/3/11  30.1   4/5/11  323    9  3.67   4  40   4/3/11 NNE 29.68   61
5    64.2  90.1  5/10/11  33.4   5/2/11  175   32  3.70   3  28  5/30/11  SE 29.74   68
6    76.8  96.3  6/30/11  54.2   6/1/11   10  118  5.34   3  37  6/27/11 ESE 29.72   68
7    83.9 101.5  7/28/11  66.0   7/8/11    0  262  2.89   2  27  7/12/11 ESE 29.77   66
8    77.8 108.5   8/2/11  58.9  8/25/11    6  138  5.14   1  32  8/18/11 NNE 29.77   72
9    64.4 100.4   9/1/11  40.2  9/25/11  171   39  1.67   1  24  9/29/11 ENE 29.92   66
10   58.1  85.5  10/4/11  29.0 10/21/11  318   13  0.35   2  29 10/25/11  SE 29.93   57
11   46.4  77.9  11/1/11  20.3 11/30/11  594    0  4.83   3  36 11/18/11  SE 29.92   64
12   37.5  66.1 12/31/11  12.1  12/7/11  880    0  2.65   2  35 12/31/11  SE 30.08   69
---------------------------------------------------------------------------------------
TOT  55.8 108.5   8/2/11 -11.2   2/3/11 5341  613 34.25   2  40   4/3/11  SE 29.88   66

HEAT BASE: 66.0
COOL BASE: 76.0

                  YEARLY CLIMATOLOGICAL SUMMARY FOR 2010
                                        HEAT  COOL        
     MEAN                               DEG   DEG       WIND SPEED       DOM MEAN  MEAN
MON  TEMP  HIGH   DATE     LOW   DATE   DAYS  DAYS RAIN AVG  HI  DATE    DIR BAROM HUM
---------------------------------------------------------------------------------------
1    24.0  52.0  1/23/10  -8.2  1/10/10 1301    0  0.18   2  26  1/24/10 NNW 30.12   73
2    27.8  49.5  2/18/10   4.3   2/9/10 1070    0  1.65   2  25  2/14/10   W 30.06   71
3    45.3  78.6  3/31/10  19.2   3/4/10  649    0  2.13   3  31  3/30/10  NW 29.87   68
4    60.5  81.4  4/29/10  36.2  4/18/10  227    5  4.87   4  36   4/5/10 ESE 29.76   61
5    63.9  89.5  5/25/10  42.9  5/14/10  178   30  5.82   2  31  5/12/10   N 29.83   72
6    77.4  92.7  6/22/10  59.2  6/30/10    4  118  6.41   2  33  6/19/10 ESE 29.79   72
7    79.5  95.9  7/18/10  62.0   7/1/10    1  151  5.54   2  27   7/6/10   E 29.82   75
8    79.4 101.0  8/11/10  53.1  8/25/10    9  176  3.16   2  28  8/13/10   E 29.81   69
9    68.6  89.5   9/6/10  42.3  9/27/10   76   32  9.54   2  34  9/18/10 ESE 29.86   74
10   58.0  87.0  10/8/10  28.4 10/29/10  298    8  0.20   2  26 10/23/10  SE 29.93   63
11   45.7  74.0  11/8/10  18.9 11/26/10  616    0  1.79   3  29 11/28/10  SE 29.94   62
12   30.8  67.3 12/30/10   3.2 12/13/10 1091    0  0.51   3  33 12/30/10 NNE 30.05   67
---------------------------------------------------------------------------------------
TOT  55.2 101.0  8/11/10  -8.2  1/10/10 5520  520 41.80   2  36   4/5/10   E 29.90   69

HEAT BASE: 66.0
COOL BASE: 76.0

                  YEARLY CLIMATOLOGICAL SUMMARY FOR 2009
                                        HEAT  COOL        
     MEAN                               DEG   DEG       WIND SPEED       DOM MEAN  MEAN
MON  TEMP  HIGH   DATE     LOW   DATE   DAYS  DAYS RAIN AVG  HI  DATE    DIR BAROM HUM
---------------------------------------------------------------------------------------
1    28.2  69.9  1/31/09  -3.1  1/15/09 1171    0  0.03   3  31  1/14/09   N 30.06   59
2    38.1  72.1   2/7/09   5.4   2/4/09  783    0  1.12   4  35   2/6/09   N 30.05   57
3    45.9  78.6  3/17/09   7.7   3/2/09  634    0  5.39   4  42  3/23/09   E 29.96   61
4    53.8  81.8  4/23/09  25.8   4/3/09  399    3  4.90   4  35  4/26/09   E 29.86   63
5    65.0  89.3  5/30/09  38.6  5/17/09  133   23  3.60   2  26   5/9/09   E 29.88   66
6    74.9  98.7  6/23/09  52.5   6/4/09   25  102  4.75   2  29  6/23/09 ESE 29.74   72
7    73.6  92.5  7/24/09  53.8  7/18/09   20   65  4.60   1  30  7/12/09   E 29.85   73
8    73.3  95.6   8/8/09  49.4  8/30/09   30   70  4.80   2  26   8/1/09   E 29.88   74
9    65.5  87.6  9/27/09  39.2  9/30/09  102    7  2.66   1  21  9/28/09  NE 29.96   75
10   50.5  75.1  10/1/09  29.8 10/18/09  483    0  4.90   2  35 10/30/09   E 29.87   75
11   49.8  74.9  11/1/09  25.0 11/30/09  493    0  1.30   3  26  11/6/09   E 29.97   69
12   29.3  58.9  12/1/09   2.2 12/10/09 1138    0  1.09   3  27 12/25/09   W 29.99   71
---------------------------------------------------------------------------------------
TOT  54.0  98.7  6/23/09  -3.1  1/15/09 5411  271 39.14   3  42  3/23/09   E 29.92   68

HEAT BASE: 66.0
COOL BASE: 76.0

                  YEARLY CLIMATOLOGICAL SUMMARY FOR 2008
                                        HEAT  COOL        
     MEAN                               DEG   DEG       WIND SPEED       DOM MEAN  MEAN
MON  TEMP  HIGH   DATE     LOW   DATE   DAYS  DAYS RAIN AVG  HI  DATE    DIR BAROM HUM
---------------------------------------------------------------------------------------
1    30.2  67.6   1/7/08  -0.8  1/19/08 1095    0  1.29   3  39  1/28/08 ESE 30.06   64
2    29.5  72.0   2/4/08   5.8  2/20/08 1056    0  2.95   3  26  2/26/08  NE 29.98   69
3    42.5  77.0  3/12/08  10.2   3/8/08  729    0  2.78   4  38  3/31/08 NNE 29.97   64
4    51.9  78.3  4/30/08  25.4  4/14/08  441    0  5.13   4  34  4/11/08   E 29.88   64
5    63.9  88.8  5/25/08  37.6   5/4/08  155   16  4.38   3  46   5/2/08 ESE 29.74   66
6    74.4  91.2  6/25/08  54.4  6/17/08   13   71  4.99   3  33   6/8/08  SE 29.79   70
7    77.5  96.8  7/21/08  57.5  7/13/08    8  119 10.80   2  42   7/2/08  SE 29.84   73
8    74.4  97.3   8/3/08  55.1  8/30/08   21   88  1.62   1  34  8/28/08  NE 29.87   73
9    66.1  89.7   9/1/08  46.4  9/30/08  110   20  7.38   1  20  9/14/08   E 29.99   78
10   55.8  79.9  10/5/08  24.4 10/28/08  350    2  2.98   2  26 10/26/08 ESE 30.04   71
11   43.7  77.0  11/3/08  15.9 11/21/08  675    0  2.04   3  29  11/5/08 ESE 30.00   66
12   30.1  66.8 12/26/08   0.5 12/22/08 1114    0  1.47   4  34 12/13/08 NNW 30.04   66
---------------------------------------------------------------------------------------
TOT  53.4  97.3   8/3/08  -0.8  1/19/08 5766  317 47.81   3  46   5/2/08 ESE 29.93   69

HEAT BASE: 66.0
COOL BASE: 76.0

                  YEARLY CLIMATOLOGICAL SUMMARY FOR 2007
                                        HEAT  COOL        
     MEAN                               DEG   DEG       WIND SPEED       DOM MEAN  MEAN
MON  TEMP  HIGH   DATE     LOW   DATE   DAYS  DAYS RAIN AVG  HI  DATE    DIR BAROM HUM
---------------------------------------------------------------------------------------
1    30.6  60.4  1/11/07   1.7  1/16/07 1096    0  0.83   4  38  1/10/07 NNW 30.14   68
2    29.3  72.5  2/28/07  -0.6  2/16/07 1023    0  2.89   4  33  2/25/07 ESE 30.05   62
3    53.3  76.5  3/25/07  15.1   3/4/07  419    0  2.57   5  40  3/31/07  SW 29.98   65
4    52.8  85.1  4/29/07  20.0   4/7/07  443    7  3.89   4  41  4/22/07 NNW 29.93   59
5    68.4  86.7  5/13/07  46.8  5/18/07   61   22 11.38   3  34  5/29/07  SW 29.93   72
6    73.4  89.7  6/25/07  51.7   6/9/07   14   58  5.64   3  37   6/7/07  SW 29.85   71
7    77.5  92.9  7/17/07  60.4  7/11/07    2  116  1.72   2  27   7/4/07 SSW 29.88   68
8    81.7 101.2  8/15/07  57.6  8/31/07    2  210  2.28   3  30  8/23/07   W 29.84   68
9    70.6  93.2   9/3/07  38.9  9/15/07   70   60  3.74   3  31   9/7/07 WNW 29.95   67
10   59.8  87.2  10/5/07  30.4 10/28/07  266   13  5.16   2  34 10/21/07  SE 29.92   69
11   44.6  74.6 11/19/07  17.0 11/23/07  646    0  0.44   2  27 11/19/07  SE 30.07   62
12   31.3  64.8  12/2/07  11.1 12/16/07 1075    0  1.47   2  35  12/1/07  SE 30.03   75
---------------------------------------------------------------------------------------
TOT  56.3 101.2  8/15/07  -0.6   1/1/07 5116  485 42.01   3  41  4/22/07  SW 29.96   67

HEAT BASE: 66.0
COOL BASE: 76.0

                  YEARLY CLIMATOLOGICAL SUMMARY FOR 2006
                                        HEAT  COOL        
     MEAN                               DEG   DEG       WIND SPEED       DOM MEAN  MEAN
MON  TEMP  HIGH   DATE     LOW   DATE   DAYS  DAYS RAIN AVG  HI  DATE    DIR BAROM HUM
---------------------------------------------------------------------------------------
1    41.2  63.1  1/19/06  19.4  1/18/06  763    0  0.53   4  29  1/13/06   S 29.92   62
2    34.3  76.7  2/28/06   3.2  2/18/06  886    0  0.03   3  32  2/14/06   N 30.10   53
3    46.2  77.7   3/1/06  24.5   3/3/06  621    0  2.16   5  45  3/30/06   N 29.99   61
4    60.8  90.7  4/18/06  31.0   4/9/06  229   14  2.68   5  40   4/6/06   S 29.81   60
5    66.0  93.6  5/19/06  43.9   5/2/06  144   39  2.26   3  31  5/28/06   N 29.84   63
6    75.3  94.7  6/29/06  51.9  6/13/06   21  108  2.04   3  29  6/21/06  SW 29.90   63
7    80.9 102.0  7/20/06  57.0   7/6/06    6  212  2.69   3  32  7/21/06  SW 29.88   62
8    78.9 104.6   8/6/06  55.0  8/15/06    9  161  7.41   3  29   8/2/06   E 29.87   68
9    64.9  92.1  9/16/06  41.9  9/20/06  132   19  1.17   2  33  9/16/06 NNW 29.89   69
10   54.0  93.6  10/3/06  26.1 10/24/06  427   19  4.36   3  31 10/30/06  SW 29.92   66
11   46.7  81.4  11/8/06  16.5 11/30/06  585    1  1.94   3  33 11/28/06  SW 30.00   66
12   38.9  67.9 12/16/06   9.0  12/8/06  838    0  2.56   4  35 12/10/06  SW 30.09   66
---------------------------------------------------------------------------------------
TOT  57.5 104.6   8/6/06   3.2  2/18/06 4662  573 10.03   3  45  3/30/06  SW 29.93   63

HEAT BASE: 66.0
COOL BASE: 76.0

                  YEARLY CLIMATOLOGICAL SUMMARY FOR 2005
                                        HEAT  COOL        
     MEAN                               DEG   DEG       WIND SPEED       DOM MEAN  MEAN
MON  TEMP  HIGH   DATE     LOW   DATE   DAYS  DAYS RAIN AVG  HI  DATE    DIR BAROM HUM
---------------------------------------------------------------------------------------
1    39.0  76.1  11/6/04   0.0   1/6/05 3252    4  0.32   3  40 12/30/04   N 30.12   70
2    39.3  76.1  11/6/04   0.0   1/6/05 4379    4  0.07   3  40 12/30/04   N 30.11   69
3    39.9  76.1  11/6/04   0.0   1/6/05 4894    4  1.09   3  40 12/30/04   N 30.08   68
4    60.8  81.8   4/3/05  30.7   4/2/05 1427   16  1.67   4  31   4/4/05   S 29.88   64
5    64.9  89.0  5/19/05  31.3   5/3/05  155   23  2.65   3  36  5/12/05   S 29.91   62
6    75.4  94.0  6/29/05  54.7   6/2/05   12   94  7.94   3  39   6/8/05   S 29.82   69
7    78.5  99.9  7/23/05  54.2  7/28/05   10  159  1.57   2  25  7/25/05  NE 29.92   66
8    76.5  97.5   8/3/05  60.2   8/6/05    5  117 10.88   1  31  8/18/05  NE 29.90   73
9    71.2  89.0  9/19/05  38.9  9/29/05   55   59  4.31   2  27  9/12/05   S 29.97   74
10   56.0  86.5  10/2/05  29.1 10/25/05  371   11  1.78   2  27 10/29/05 NNW 30.03   73
11   47.5  80.5  11/8/05  17.2 11/17/05  567    1  0.85   4  32 11/12/05   S 29.93   59
12   30.8  62.7 12/27/05  -2.0  12/9/05 1068    0  0.65   3  27  12/1/05   N 30.05   69
---------------------------------------------------------------------------------------
TOT  53.8  99.9  7/23/05  -2.0  12/9/0510301  643  7.59   3  40 12/30/04   S 29.98   67

HEAT BASE: 66.0
COOL BASE: 76.0

                  YEARLY CLIMATOLOGICAL SUMMARY FOR 2004
                                        HEAT  COOL        
     MEAN                               DEG   DEG       WIND SPEED       DOM MEAN  MEAN
MON  TEMP  HIGH   DATE     LOW   DATE   DAYS  DAYS RAIN AVG  HI  DATE    DIR BAROM HUM
---------------------------------------------------------------------------------------
1
2
3
4
5
6
7
8
9    68.4  88.4  9/14/04  39.6  9/29/04   52  125  5.08   2  25  9/14/04 SSE 30.01   68
10   57.8  79.4 10/29/04  36.0  10/2/04  257   34  3.12   3  28 10/22/04  NE 29.91   72
11   44.3  76.1  11/6/04  18.9 11/25/04  911    3  0.36   3  30 11/27/04  SW 30.05   76
12   41.2  76.1  11/6/04   2.0 12/24/04 1903    4  0.00   3  40 12/30/04   N 30.09   69
---------------------------------------------------------------------------------------
TOT  49.2  88.4  9/14/04   2.0 12/24/04 2453  163 13.22   3  40 12/30/04   N 30.03   70

HEAT BASE: 65.0
COOL BASE: 65.0


Yearly Archive Report

Parameter                   Max   Max Time   Max Date        Min   Min Time   Min Date    Average
Wind Direction              358     2:00pm     1/5/15          0     2:00pm     1/5/15         90
Wind Speed                 40.0     1:49am    6/26/15        0.0    12:37am     1/1/15        1.9
Wind Gust                  40.0     1:49am    6/26/15        0.0     7:00am     1/1/15        7.9
Humidity                     96     8:03am     6/5/15         18     4:22pm     3/7/15         67
Out Temp                   98.7     5:33pm    7/14/15        0.3     7:21am     2/5/15       55.2
Raw Barometer             31.00    11:29am     1/7/15      29.25     4:29am    4/25/15      29.93
Dew Point                  81.5     6:29pm    7/13/15      -12.6    10:37am     1/7/15       43.1


Monthly Archive Report

Parameter                   Max   Max Time   Max Date        Min   Min Time   Min Date    Average
Wind Direction              358     8:42am     8/1/15          0     6:13pm     8/1/15        338
Wind Speed                 17.0    12:48pm     8/4/15        0.0    12:00am     8/1/15        0.6
Wind Gust                  17.0    12:48pm     8/4/15        0.0    12:00am     8/1/15        4.8
Humidity                     94    10:01pm     8/4/15         36     5:16pm     8/1/15         71
Out Temp                   94.5     5:07pm     8/1/15       68.3     6:15am     8/2/15       78.5
Raw Barometer             29.91    12:29am     8/1/15      29.64     6:59pm     8/2/15      29.78
Dew Point                  75.1    12:40pm     8/1/15       60.3     8:41pm     8/1/15       67.7


Unauthorized duplication or distribution is prohibited
Never base important decisions on this or any weather information obtained from the Internet